Time;durP1;ratioP1;P1;durP2;ratioP2;P2;SDS_P1;SDS_P2;PMS_P1;PMS_P2;Temp;Humidity;BMP_temperature;BMP_pressure;BME280_temperature;BME280_humidity;BME280_pressure;Samples;Min_cycle;Max_cycle;Signal;HPM_P1;HPM_P2
2021/04/17 00:02:11;;;;;;;16.43;11.00;;;-1.20;99.90;;;;;;5014030;28;20825;-75
2021/04/17 00:04:39;;;;;;;14.80;10.33;;;-1.20;99.90;;;;;;5013789;28;20496;-75
2021/04/17 00:07:07;;;;;;;19.33;11.17;;;-1.20;99.90;;;;;;5013799;28;20409;-75
2021/04/17 00:09:33;;;;;;;14.63;9.67;;;-1.20;99.90;;;;;;5013671;28;20441;-75
2021/04/17 00:12:01;;;;;;;15.03;10.33;;;-1.20;99.90;;;;;;5012351;28;20504;-75
2021/04/17 00:14:33;;;;;;;14.33;9.33;;;-1.20;99.90;;;;;;5016195;28;20460;-75
2021/04/17 00:16:59;;;;;;;16.43;9.87;;;-1.20;99.90;;;;;;5017343;28;20464;-76
2021/04/17 00:19:25;;;;;;;18.13;10.43;;;-1.20;99.90;;;;;;5017101;28;20441;-75
2021/04/17 00:21:51;;;;;;;15.93;9.23;;;-1.10;99.90;;;;;;5017146;28;20816;-76
2021/04/17 00:24:17;;;;;;;13.50;9.43;;;-1.20;99.90;;;;;;5032219;28;20464;-75
2021/04/17 00:26:43;;;;;;;15.17;10.07;;;-1.20;99.90;;;;;;5017233;28;20206;-75
2021/04/17 00:29:09;;;;;;;18.23;10.83;;;-1.20;99.90;;;;;;5032152;28;20202;-75
2021/04/17 00:31:36;;;;;;;20.23;10.90;;;-1.30;99.90;;;;;;5017354;28;20186;-75
2021/04/17 00:34:03;;;;;;;19.43;11.93;;;-1.30;99.90;;;;;;5015402;28;20445;-75
2021/04/17 00:36:29;;;;;;;15.30;10.23;;;-1.30;99.90;;;;;;5015645;28;20417;-75
2021/04/17 00:38:55;;;;;;;16.67;10.63;;;-1.30;99.90;;;;;;5015339;28;20525;-75
2021/04/17 00:41:21;;;;;;;12.67;10.07;;;-1.30;99.90;;;;;;5017049;28;20497;-75
2021/04/17 00:43:46;;;;;;;17.47;10.27;;;-1.30;99.90;;;;;;5032605;28;20529;-75
2021/04/17 00:46:13;;;;;;;15.73;10.50;;;-0.70;99.90;;;;;;5015212;28;20183;-75
2021/04/17 00:48:40;;;;;;;15.93;10.20;;;-1.40;99.90;;;;;;5016663;28;20217;-75
2021/04/17 00:51:06;;;;;;;20.63;10.27;;;-1.60;99.90;;;;;;5016814;28;20968;-75
2021/04/17 00:53:32;;;;;;;21.40;10.27;;;-1.70;99.90;;;;;;5016685;28;20508;-75
2021/04/17 00:55:58;;;;;;;14.10;9.47;;;-1.80;99.90;;;;;;5017021;28;20495;-75
2021/04/17 00:58:23;;;;;;;14.70;9.90;;;-1.80;99.90;;;;;;5016361;28;20218;-76
2021/04/17 01:00:49;;;;;;;16.70;10.03;;;-1.70;99.90;;;;;;5016119;28;20499;-76
2021/04/17 01:03:38;;;;;;;13.90;9.47;;;-1.80;99.90;;;;;;5015083;28;20179;-76
2021/04/17 01:06:22;;;;;;;16.87;10.27;;;-1.70;99.90;;;;;;5015716;28;20241;-75
2021/04/17 01:08:57;;;;;;;18.90;9.93;;;-1.70;99.90;;;;;;5015080;28;20438;-75
2021/04/17 01:11:49;;;;;;;15.53;10.33;;;-1.70;99.90;;;;;;5016370;28;20420;-75
2021/04/17 01:14:16;;;;;;;13.50;8.90;;;-1.70;99.90;;;;;;5010349;28;20824;-76
2021/04/17 01:16:44;;;;;;;14.50;9.40;;;-1.70;99.90;;;;;;5016585;28;20951;-75
2021/04/17 01:19:13;;;;;;;17.07;9.87;;;-1.70;99.90;;;;;;5015913;28;20519;-75
2021/04/17 01:21:40;;;;;;;17.03;9.97;;;-1.70;99.90;;;;;;5014597;28;20417;-76
2021/04/17 01:24:16;;;;;;;16.60;10.47;;;-1.70;99.90;;;;;;5014466;28;20413;-75
2021/04/17 01:26:43;;;;;;;15.53;10.10;;;-1.70;99.90;;;;;;5015292;28;20398;-75
2021/04/17 01:29:09;;;;;;;23.43;10.63;;;-1.70;99.90;;;;;;5015688;28;20985;-76
2021/04/17 01:31:38;;;;;;;16.17;9.67;;;-1.70;99.90;;;;;;5016215;28;20414;-76
2021/04/17 01:34:05;;;;;;;16.90;10.43;;;-1.70;99.90;;;;;;5015735;28;20749;-76
2021/04/17 01:36:33;;;;;;;15.50;10.27;;;-1.80;99.90;;;;;;5015867;28;20410;-76
2021/04/17 01:39:07;;;;;;;14.90;10.17;;;-1.70;99.90;;;;;;5015488;28;20461;-76
2021/04/17 01:41:55;;;;;;;14.97;9.50;;;-1.70;99.90;;;;;;5016215;28;20500;-76
2021/04/17 01:44:27;;;;;;;19.40;9.83;;;-1.70;99.90;;;;;;5014284;28;20592;-76
2021/04/17 01:47:14;;;;;;;14.97;9.67;;;-1.70;99.90;;;;;;5014309;28;20505;-75
2021/04/17 01:49:45;;;;;;;13.83;10.37;;;-1.70;99.90;;;;;;5015712;28;20417;-76
2021/04/17 01:52:13;;;;;;;17.33;10.07;;;-1.70;99.90;;;;;;5015499;28;20436;-75
2021/04/17 01:54:50;;;;;;;12.67;8.77;;;-1.80;99.90;;;;;;5015188;28;20418;-75
2021/04/17 01:57:21;;;;;;;16.93;10.23;;;-1.90;99.90;;;;;;5015294;28;20437;-75
2021/04/17 01:59:48;;;;;;;16.70;9.37;;;-1.90;99.90;;;;;;5015202;28;20442;-75
2021/04/17 02:02:16;;;;;;;15.93;9.37;;;-1.90;99.90;;;;;;5015246;28;20450;-76
2021/04/17 02:04:41;;;;;;;14.27;9.40;;;-1.90;99.90;;;;;;5015203;28;20410;-76
2021/04/17 02:07:07;;;;;;;13.40;9.27;;;-1.90;99.90;;;;;;5015178;28;20406;-75
2021/04/17 02:09:33;;;;;;;15.53;9.57;;;-1.90;99.90;;;;;;5015117;28;20621;-76
2021/04/17 02:11:58;;;;;;;16.33;10.13;;;-1.90;99.90;;;;;;5013818;28;20186;-75
2021/04/17 02:14:24;;;;;;;15.27;9.33;;;-1.90;99.90;;;;;;5015183;28;20294;-76
2021/04/17 02:17:21;;;;;;;16.00;9.87;;;-1.90;99.90;;;;;;5015303;28;20175;-76
2021/04/17 02:20:13;;;;;;;14.77;10.33;;;-2.00;99.90;;;;;;5015228;28;20194;-76
2021/04/17 02:22:41;;;;;;;14.53;9.20;;;-2.00;99.90;;;;;;5010837;28;20406;-75
2021/04/17 02:25:07;;;;;;;15.53;9.80;;;-2.00;99.90;;;;;;5014774;28;20410;-75
2021/04/17 02:27:34;;;;;;;15.47;9.87;;;-2.00;99.90;;;;;;5014688;28;20430;-75
2021/04/17 02:29:59;;;;;;;16.17;9.27;;;-1.90;99.90;;;;;;5013443;28;20516;-75
2021/04/17 02:32:25;;;;;;;15.90;10.40;;;-1.90;99.90;;;;;;5014700;28;20549;-76
2021/04/17 02:34:51;;;;;;;15.70;10.30;;;-1.90;99.90;;;;;;5014462;28;20181;-75
2021/04/17 02:37:18;;;;;;;15.17;9.17;;;-1.90;99.90;;;;;;5012974;28;20179;-75
2021/04/17 02:39:44;;;;;;;14.70;10.20;;;-2.00;99.90;;;;;;5014561;28;20454;-75
2021/04/17 02:42:13;;;;;;;17.07;10.40;;;-2.00;99.90;;;;;;5014793;28;20880;-75
2021/04/17 02:44:39;;;;;;;14.93;10.07;;;-2.00;99.90;;;;;;5013203;28;20429;-76
2021/04/17 02:47:05;;;;;;;14.70;10.37;;;-2.00;99.90;;;;;;5014306;28;20883;-76
2021/04/17 02:49:31;;;;;;;17.73;11.70;;;-2.00;99.90;;;;;;5014350;28;20175;-75
2021/04/17 02:51:57;;;;;;;15.93;9.63;;;-2.00;99.90;;;;;;5014307;28;20460;-75
2021/04/17 02:54:22;;;;;;;18.23;11.10;;;-2.00;99.90;;;;;;5012960;28;20265;-76
2021/04/17 02:56:48;;;;;;;18.53;11.23;;;-2.00;99.90;;;;;;5014323;28;20643;-76
2021/04/17 02:59:14;;;;;;;18.37;11.47;;;-2.10;99.90;;;;;;5014143;28;20630;-76
2021/04/17 03:01:41;;;;;;;16.43;10.77;;;-2.10;99.90;;;;;;5014277;28;20410;-76
2021/04/17 03:04:07;;;;;;;18.87;12.30;;;-2.10;99.90;;;;;;5014033;28;20578;-75
2021/04/17 03:06:32;;;;;;;19.77;12.37;;;-2.20;99.90;;;;;;5014365;28;20406;-75
2021/04/17 03:08:58;;;;;;;19.03;11.47;;;-2.10;99.90;;;;;;5014200;28;20191;-76
2021/04/17 03:11:24;;;;;;;17.90;11.80;;;-2.20;99.90;;;;;;5013965;28;20521;-76
2021/04/17 03:13:50;;;;;;;16.10;10.97;;;-2.20;99.90;;;;;;5013803;28;20253;-75
2021/04/17 03:16:16;;;;;;;18.63;10.97;;;-2.20;99.90;;;;;;5029109;28;20450;-75
2021/04/17 03:18:41;;;;;;;14.80;10.63;;;-2.20;99.90;;;;;;5013972;28;20261;-76
2021/04/17 03:21:07;;;;;;;16.30;10.13;;;-2.20;99.90;;;;;;5029227;28;20189;-76
2021/04/17 03:23:33;;;;;;;18.83;10.90;;;-2.20;99.90;;;;;;5014288;28;20173;-76
2021/04/17 03:25:58;;;;;;;19.13;11.63;;;-2.20;99.90;;;;;;5013735;28;20202;-76
2021/04/17 03:28:24;;;;;;;18.97;11.93;;;-2.10;99.90;;;;;;5013638;28;20261;-75
2021/04/17 03:30:50;;;;;;;18.73;10.80;;;-2.20;99.90;;;;;;5028876;28;20712;-76
2021/04/17 03:33:16;;;;;;;15.43;10.40;;;-2.20;99.90;;;;;;5012453;28;20223;-75
2021/04/17 03:35:41;;;;;;;16.43;10.67;;;-2.10;99.90;;;;;;5012352;28;20179;-76
2021/04/17 03:38:07;;;;;;;21.27;10.93;;;-2.10;99.90;;;;;;5013615;28;20203;-75
2021/04/17 03:40:33;;;;;;;19.00;11.10;;;-2.10;99.90;;;;;;5013505;28;20297;-76
2021/04/17 03:42:59;;;;;;;18.43;11.80;;;-2.10;99.90;;;;;;5013707;28;20171;-76
2021/04/17 03:45:25;;;;;;;17.27;11.50;;;-2.20;99.90;;;;;;5012534;28;20179;-76
2021/04/17 03:47:52;;;;;;;19.30;11.77;;;-2.20;99.90;;;;;;5013188;28;20810;-75
2021/04/17 03:50:18;;;;;;;18.53;11.70;;;-2.20;99.90;;;;;;5020091;28;20421;-76
2021/04/17 03:52:44;;;;;;;18.53;11.97;;;-2.20;99.90;;;;;;5020475;28;20791;-75
2021/04/17 03:55:14;;;;;;;20.23;11.77;;;-2.20;99.90;;;;;;5018611;28;20185;-75
2021/04/17 03:57:41;;;;;;;21.43;13.20;;;-2.20;99.90;;;;;;5019916;28;20576;-75
2021/04/17 04:00:11;;;;;;;22.30;13.10;;;-2.10;99.90;;;;;;5020112;28;20452;-76
2021/04/17 04:02:37;;;;;;;19.60;12.60;;;-2.10;99.90;;;;;;5020200;28;20393;-76
2021/04/17 04:05:04;;;;;;;18.33;11.70;;;-2.00;99.90;;;;;;5019860;28;20922;-76
2021/04/17 04:07:30;;;;;;;16.73;9.83;;;-2.00;99.90;;;;;;5019880;28;20422;-76
2021/04/17 04:09:55;;;;;;;17.47;10.07;;;-2.00;99.90;;;;;;5019948;28;20821;-76
2021/04/17 04:12:21;;;;;;;18.77;10.70;;;-2.10;99.90;;;;;;5020197;28;20557;-76
2021/04/17 04:14:47;;;;;;;23.33;13.00;;;-2.00;99.90;;;;;;5019745;28;20277;-75
2021/04/17 04:17:12;;;;;;;16.23;11.60;;;-2.00;99.90;;;;;;5020182;28;20179;-76
2021/04/17 04:19:38;;;;;;;20.87;12.40;;;-2.00;99.90;;;;;;5019945;28;20203;-75
2021/04/17 04:22:04;;;;;;;20.13;12.07;;;-1.90;99.90;;;;;;5019932;28;20175;-76
2021/04/17 04:24:29;;;;;;;17.70;11.37;;;-1.80;99.90;;;;;;5019717;28;20167;-76
2021/04/17 04:26:55;;;;;;;18.57;12.43;;;-1.70;99.90;;;;;;5019802;28;20182;-75
2021/04/17 04:29:21;;;;;;;18.93;12.57;;;-1.70;99.90;;;;;;5018532;28;20201;-76
2021/04/17 04:31:46;;;;;;;18.63;10.37;;;-1.10;99.90;;;;;;5020334;28;20261;-76
2021/04/17 04:34:12;;;;;;;21.10;13.50;;;-1.60;99.90;;;;;;5018429;28;20225;-76
2021/04/17 04:36:38;;;;;;;18.00;11.77;;;-1.60;99.90;;;;;;5019754;28;20206;-76
2021/04/17 04:39:04;;;;;;;18.20;12.17;;;-1.60;99.90;;;;;;5019542;28;20232;-76
2021/04/17 04:41:29;;;;;;;19.73;11.87;;;-1.50;99.90;;;;;;5018458;28;20594;-76
2021/04/17 04:43:55;;;;;;;17.27;11.83;;;-1.50;99.90;;;;;;5018418;28;20448;-76
2021/04/17 04:46:21;;;;;;;18.83;11.93;;;-1.40;99.90;;;;;;5019651;28;20209;-76
2021/04/17 04:48:47;;;;;;;19.70;12.50;;;-1.40;99.90;;;;;;5019643;28;20191;-76
2021/04/17 04:51:12;;;;;;;17.23;11.33;;;-1.40;99.90;;;;;;5019684;28;20516;-76
2021/04/17 04:53:38;;;;;;;17.27;12.17;;;-1.30;99.90;;;;;;5019565;28;20585;-76
2021/04/17 04:56:05;;;;;;;20.87;13.77;;;-1.30;99.90;;;;;;5019463;28;20915;-76
2021/04/17 04:58:31;;;;;;;19.37;12.60;;;-1.30;99.90;;;;;;5019498;28;20958;-76
2021/04/17 05:00:56;;;;;;;21.93;12.37;;;-1.30;99.90;;;;;;5016854;28;20475;-76
2021/04/17 05:03:22;;;;;;;20.40;12.33;;;-1.30;99.90;;;;;;5016902;28;20175;-76
2021/04/17 05:05:47;;;;;;;18.03;11.67;;;-1.30;99.90;;;;;;5016876;28;20179;-76
2021/04/17 05:08:13;;;;;;;16.70;11.33;;;-1.30;99.90;;;;;;5016894;28;20246;-76
2021/04/17 05:10:39;;;;;;;22.13;12.50;;;-1.80;99.90;;;;;;5017200;28;20205;-76
2021/04/17 05:13:04;;;;;;;19.47;13.07;;;-1.10;99.90;;;;;;5016816;28;20183;-76
2021/04/17 05:15:30;;;;;;;20.90;13.63;;;-1.00;99.90;;;;;;5016106;28;20179;-76
2021/04/17 05:17:56;;;;;;;22.60;14.43;;;-0.90;99.90;;;;;;5016397;28;20273;-76
2021/04/17 05:20:21;;;;;;;19.93;13.13;;;-0.70;99.90;;;;;;5016063;28;20552;-76
2021/04/17 05:22:47;;;;;;;23.63;12.80;;;-0.70;99.90;;;;;;5016706;28;20548;-76
2021/04/17 05:25:13;;;;;;;21.53;13.63;;;-0.60;99.90;;;;;;5014895;28;20575;-76
2021/04/17 05:27:39;;;;;;;19.10;13.00;;;-0.60;99.90;;;;;;5014961;28;20195;-76
2021/04/17 05:30:05;;;;;;;20.60;12.90;;;-0.60;99.90;;;;;;5016291;28;20179;-76
2021/04/17 05:32:31;;;;;;;21.00;13.67;;;-0.50;99.90;;;;;;5015122;28;20179;-76
2021/04/17 05:34:57;;;;;;;26.10;14.80;;;-0.50;99.90;;;;;;5014676;28;20512;-76
2021/04/17 05:37:22;;;;;;;21.17;13.20;;;-0.40;99.90;;;;;;5016371;28;20198;-76
2021/04/17 05:39:48;;;;;;;25.33;14.87;;;-0.30;99.90;;;;;;5030879;28;20285;-76
2021/04/17 05:42:14;;;;;;;22.47;14.37;;;-0.30;99.90;;;;;;5015032;28;20211;-76
2021/04/17 05:44:40;;;;;;;24.30;15.77;;;-0.20;99.90;;;;;;5015453;28;20170;-76
2021/04/17 05:47:05;;;;;;;23.17;15.70;;;0.00;99.90;;;;;;5014152;28;20313;-76
2021/04/17 05:49:31;;;;;;;25.30;16.17;;;-0.10;99.90;;;;;;5017248;28;20174;-76
2021/04/17 05:51:57;;;;;;;19.33;14.17;;;0.10;99.90;;;;;;5015665;28;20609;-77
2021/04/17 05:54:22;;;;;;;21.13;14.43;;;0.10;99.90;;;;;;5014157;28;20545;-76
2021/04/17 05:56:48;;;;;;;21.67;15.03;;;0.80;99.90;;;;;;5015210;28;20187;-76
2021/04/17 05:59:15;;;;;;;29.63;17.83;;;0.20;99.90;;;;;;5015362;28;20278;-76
2021/04/17 06:01:41;;;;;;;25.50;15.73;;;0.20;99.90;;;;;;5015604;28;20209;-76
2021/04/17 06:04:07;;;;;;;22.53;15.03;;;0.40;99.90;;;;;;5031926;28;20409;-76
2021/04/17 06:06:32;;;;;;;25.73;15.77;;;0.30;99.90;;;;;;5015607;28;20179;-76
2021/04/17 06:08:58;;;;;;;25.23;14.63;;;0.30;99.90;;;;;;5015742;28;20698;-76
2021/04/17 06:11:24;;;;;;;21.90;14.17;;;0.40;99.90;;;;;;5014845;28;20656;-75
2021/04/17 06:13:51;;;;;;;24.90;15.37;;;0.50;99.90;;;;;;5015613;28;20225;-76
2021/04/17 06:16:16;;;;;;;20.60;13.67;;;0.40;99.90;;;;;;5015001;28;20648;-76
2021/04/17 06:18:42;;;;;;;21.93;14.33;;;0.60;99.90;;;;;;5013835;28;20484;-76
2021/04/17 06:21:08;;;;;;;23.70;15.30;;;0.60;99.90;;;;;;5030664;28;20175;-76
2021/04/17 06:23:34;;;;;;;21.80;14.27;;;0.60;99.90;;;;;;5017382;28;20229;-76
2021/04/17 06:26:00;;;;;;;26.23;14.87;;;0.60;99.90;;;;;;5019126;28;20641;-76
2021/04/17 06:28:26;;;;;;;21.97;13.47;;;0.60;99.90;;;;;;5020397;28;20225;-76
2021/04/17 06:30:52;;;;;;;20.60;14.27;;;0.70;99.90;;;;;;5023450;28;20493;-76
2021/04/17 06:33:18;;;;;;;20.50;13.77;;;0.80;99.90;;;;;;5024033;28;20235;-75
2021/04/17 06:35:44;;;;;;;18.70;13.23;;;1.00;99.90;;;;;;5021873;28;20206;-76
2021/04/17 06:38:13;;;;;;;21.53;13.83;;;0.80;99.90;;;;;;5014967;28;20206;-75
2021/04/17 06:40:41;;;;;;;18.97;13.30;;;1.00;99.90;;;;;;5015059;28;20676;-76
2021/04/17 06:43:07;;;;;;;25.30;15.70;;;1.00;99.90;;;;;;5013576;28;20461;-75
2021/04/17 06:45:34;;;;;;;22.73;15.00;;;1.10;99.90;;;;;;5014619;28;20418;-75
2021/04/17 06:48:07;;;;;;;24.13;14.93;;;1.20;99.90;;;;;;5013741;28;20198;-75
2021/04/17 06:50:34;;;;;;;21.47;14.33;;;1.30;99.90;;;;;;5015259;28;20175;-76
2021/04/17 06:53:07;;;;;;;19.47;14.10;;;1.40;99.90;;;;;;5015027;28;20478;-75
2021/04/17 06:55:33;;;;;;;19.90;14.33;;;1.40;99.90;;;;;;5013061;28;20418;-76
2021/04/17 06:58:00;;;;;;;22.53;14.60;;;1.50;99.90;;;;;;5014257;28;20248;-76
2021/04/17 07:00:26;;;;;;;23.13;14.67;;;1.60;99.90;;;;;;5014784;28;20457;-76
2021/04/17 07:02:52;;;;;;;21.77;14.30;;;1.70;99.90;;;;;;5013328;28;20418;-76
2021/04/17 07:05:19;;;;;;;22.70;15.40;;;1.90;99.90;;;;;;5013534;28;20818;-76
2021/04/17 07:07:45;;;;;;;21.60;14.37;;;1.90;99.90;;;;;;5014813;28;20442;-76
2021/04/17 07:10:12;;;;;;;20.60;14.60;;;2.00;99.90;;;;;;5014935;28;20179;-76
2021/04/17 07:12:38;;;;;;;21.73;14.27;;;2.20;99.90;;;;;;5014803;28;20616;-75
2021/04/17 07:15:07;;;;;;;21.53;15.23;;;2.30;99.90;;;;;;5014803;28;20211;-75
2021/04/17 07:17:34;;;;;;;22.43;14.90;;;2.30;99.90;;;;;;5014118;28;20206;-76
2021/04/17 07:20:01;;;;;;;24.10;15.53;;;2.40;99.90;;;;;;5014758;28;20240;-75
2021/04/17 07:22:38;;;;;;;20.83;14.60;;;2.40;99.90;;;;;;5014550;28;20182;-76
2021/04/17 07:25:07;;;;;;;21.73;14.10;;;2.40;99.90;;;;;;5014612;28;20321;-75
2021/04/17 07:27:41;;;;;;;20.40;14.87;;;2.50;99.90;;;;;;5014733;28;20218;-76
2021/04/17 07:30:16;;;;;;;22.57;14.63;;;2.60;99.90;;;;;;5015046;28;20170;-76
2021/04/17 07:32:48;;;;;;;21.30;15.03;;;2.60;99.90;;;;;;5013033;28;20183;-76
2021/04/17 07:35:21;;;;;;;22.47;15.23;;;2.70;99.90;;;;;;5014430;28;20179;-76
2021/04/17 07:37:49;;;;;;;22.30;15.93;;;2.60;99.90;;;;;;5014361;28;20558;-76
2021/04/17 07:40:23;;;;;;;27.30;17.63;;;2.50;99.90;;;;;;5014759;28;20207;-76
2021/04/17 07:42:55;;;;;;;26.30;18.00;;;2.60;99.90;;;;;;5014595;28;20234;-76
2021/04/17 07:45:30;;;;;;;23.47;16.97;;;2.70;99.90;;;;;;5014907;28;20159;-76
2021/04/17 07:47:59;;;;;;;23.70;15.93;;;2.80;99.90;;;;;;5012769;28;20671;-76
2021/04/17 07:50:33;;;;;;;22.17;15.90;;;2.90;99.90;;;;;;5012931;28;20199;-76
2021/04/17 07:53:00;;;;;;;20.87;14.43;;;3.00;99.90;;;;;;5014071;28;20180;-76
2021/04/17 07:55:31;;;;;;;25.27;16.77;;;3.10;99.90;;;;;;5014136;28;20215;-76
2021/04/17 07:57:58;;;;;;;25.60;17.33;;;3.30;99.90;;;;;;5012803;28;20322;-76
2021/04/17 08:00:26;;;;;;;25.13;16.37;;;3.70;99.90;;;;;;5014647;28;20567;-76
2021/04/17 08:02:54;;;;;;;23.40;16.27;;;3.80;99.90;;;;;;5013086;28;20625;-76
2021/04/17 08:05:21;;;;;;;22.67;16.13;;;4.00;99.90;;;;;;5014141;28;20760;-77
2021/04/17 08:07:48;;;;;;;24.40;16.50;;;4.30;99.90;;;;;;5013847;28;20290;-77
2021/04/17 08:10:15;;;;;;;24.57;16.63;;;4.30;99.90;;;;;;5013865;28;20170;-76
2021/04/17 08:12:42;;;;;;;25.37;17.93;;;4.00;99.90;;;;;;5013659;28;20211;-76
2021/04/17 08:15:11;;;;;;;24.60;16.77;;;3.80;99.90;;;;;;5013383;28;20597;-77
2021/04/17 08:17:41;;;;;;;23.13;16.47;;;3.60;99.90;;;;;;5013598;28;20681;-76
2021/04/17 08:20:08;;;;;;;23.77;16.80;;;3.70;99.90;;;;;;5013578;28;20671;-77
2021/04/17 08:22:35;;;;;;;23.27;17.30;;;3.80;99.90;;;;;;5013536;28;20536;-76
2021/04/17 08:25:02;;;;;;;24.67;18.10;;;3.90;99.90;;;;;;5012277;28;20681;-76
2021/04/17 08:27:34;;;;;;;24.67;17.50;;;4.00;99.90;;;;;;5014061;28;20197;-76
2021/04/17 08:30:06;;;;;;;24.77;18.17;;;4.00;99.90;;;;;;5012689;28;20271;-76
2021/04/17 08:32:43;;;;;;;25.80;18.33;;;3.90;99.90;;;;;;5013944;28;20162;-76
2021/04/17 08:35:15;;;;;;;24.90;17.17;;;3.90;99.90;;;;;;5010585;28;20303;-76
2021/04/17 08:37:54;;;;;;;26.67;16.30;;;3.90;99.90;;;;;;5017938;28;20204;-76
2021/04/17 08:40:38;;;;;;;24.33;16.47;;;4.20;99.90;;;;;;5017624;28;20275;-77
2021/04/17 08:43:16;;;;;;;22.97;15.07;;;4.30;99.90;;;;;;5017301;28;20180;-76
2021/04/17 08:46:08;;;;;;;21.97;15.63;;;4.00;99.90;;;;;;4977985;28;20182;-77
2021/04/17 08:48:50;;;;;;;20.83;15.53;;;4.40;99.90;;;;;;4978082;28;20502;-76
2021/04/17 08:51:22;;;;;;;19.53;15.00;;;4.70;99.90;;;;;;4977038;28;20217;-76
2021/04/17 08:54:00;;;;;;;19.63;15.17;;;4.80;99.90;;;;;;4978272;28;20175;-76
2021/04/17 08:56:48;;;;;;;24.77;15.67;;;5.20;99.90;;;;;;4978283;28;20177;-77
2021/04/17 08:59:31;;;;;;;20.03;13.90;;;5.30;99.90;;;;;;4976728;28;20248;-76
2021/04/17 09:02:01;;;;;;;20.23;14.77;;;5.50;99.90;;;;;;4978119;28;20540;-76
2021/04/17 09:04:28;;;;;;;19.50;14.57;;;5.90;99.90;;;;;;4978283;28;20583;-76
2021/04/17 09:06:56;;;;;;;18.23;14.07;;;6.10;99.90;;;;;;4977050;28;20209;-77
2021/04/17 09:09:22;;;;;;;17.03;14.20;;;6.50;99.90;;;;;;4977725;28;20283;-76
2021/04/17 09:12:14;;;;;;;16.50;13.63;;;6.40;99.90;;;;;;4977783;28;20186;-77
2021/04/17 09:14:53;;;;;;;16.50;12.63;;;6.80;99.90;;;;;;4977670;28;20203;-77
2021/04/17 09:17:31;;;;;;;16.03;12.53;;;6.70;99.90;;;;;;4977947;28;20176;-77
2021/04/17 09:19:57;;;;;;;19.57;13.27;;;6.30;99.90;;;;;;4976667;28;20586;-77
2021/04/17 09:22:26;;;;;;;15.80;12.23;;;6.00;99.90;;;;;;4977733;28;20176;-77
2021/04/17 09:24:54;;;;;;;14.33;11.73;;;5.70;99.90;;;;;;4977567;28;20172;-77
2021/04/17 09:27:30;;;;;;;16.27;12.60;;;5.60;99.90;;;;;;4989240;28;20270;-75
2021/04/17 09:30:05;;;;;;;16.57;11.57;;;5.40;99.90;;;;;;4981284;28;20178;-77
2021/04/17 09:32:42;;;;;;;14.73;12.17;;;5.30;99.90;;;;;;4980157;28;20171;-76
2021/04/17 09:35:16;;;;;;;15.67;12.33;;;5.30;99.90;;;;;;4980843;28;20545;-77
2021/04/17 09:38:09;;;;;;;15.63;11.87;;;5.30;99.90;;;;;;4983951;28;20209;-77
2021/04/17 09:40:49;;;;;;;14.63;10.93;;;5.20;99.90;;;;;;4979782;28;20230;-77
2021/04/17 09:43:33;;;;;;;13.20;11.00;;;5.30;99.90;;;;;;4979056;28;20288;-77
2021/04/17 09:46:16;;;;;;;13.27;11.13;;;5.30;99.90;;;;;;4974900;28;20168;-77
2021/04/17 09:48:44;;;;;;;13.07;10.63;;;5.30;99.90;;;;;;4976460;28;20203;-77
2021/04/17 09:51:27;;;;;;;13.27;11.37;;;5.30;99.90;;;;;;4977847;28;20176;-77
2021/04/17 09:53:59;;;;;;;13.07;11.23;;;5.40;99.90;;;;;;4977036;28;20205;-77
2021/04/17 09:56:33;;;;;;;13.67;11.57;;;5.40;99.90;;;;;;4975867;28;20563;-76
2021/04/17 09:59:07;;;;;;;13.30;10.10;;;5.60;99.90;;;;;;4976942;28;20713;-77
2021/04/17 10:01:33;;;;;;;13.67;10.80;;;5.60;99.90;;;;;;4977317;28;20158;-76
2021/04/17 10:04:02;;;;;;;12.93;10.23;;;5.50;99.90;;;;;;4977118;28;20595;-76
2021/04/17 10:06:35;;;;;;;14.50;11.03;;;5.70;99.90;;;;;;4979248;28;20172;-76
2021/04/17 10:09:06;;;;;;;11.10;9.47;;;6.40;99.90;;;;;;4976669;28;20199;-76
2021/04/17 10:11:33;;;;;;;13.27;10.53;;;7.00;99.90;;;;;;4975388;28;20183;-76
2021/04/17 10:13:59;;;;;;;11.30;9.77;;;7.20;99.90;;;;;;4977722;28;20622;-76
2021/04/17 10:16:34;;;;;;;11.27;10.00;;;7.20;99.90;;;;;;4976161;28;20189;-76
2021/04/17 10:19:02;;;;;;;15.10;10.77;;;6.80;99.90;;;;;;4976402;28;20229;-77
2021/04/17 10:21:33;;;;;;;12.40;10.13;;;6.40;99.90;;;;;;4976192;28;20668;-76
2021/04/17 10:24:16;;;;;;;11.40;9.80;;;6.30;99.90;;;;;;4976480;28;20157;-76
2021/04/17 10:26:59;;;;;;;11.63;9.93;;;6.20;99.90;;;;;;4975926;28;20196;-76
2021/04/17 10:29:47;;;;;;;12.60;10.00;;;6.20;99.90;;;;;;4976225;28;20200;-76
2021/04/17 10:32:21;;;;;;;11.77;9.50;;;6.20;99.90;;;;;;4975888;28;20181;-77
2021/04/17 10:34:52;;;;;;;11.70;9.63;;;5.90;99.90;;;;;;4974430;28;20206;-76
2021/04/17 10:37:22;;;;;;;12.17;9.37;;;6.10;99.90;;;;;;4975710;28;20160;-77
2021/04/17 10:40:09;;;;;;;10.60;9.20;;;6.40;99.90;;;;;;4974365;28;20266;-77
2021/04/17 10:42:43;;;;;;;10.87;9.50;;;6.40;99.90;;;;;;4976069;28;20344;-77
2021/04/17 10:45:09;;;;;;;11.80;9.23;;;6.30;99.90;;;;;;4975451;28;20175;-77
2021/04/17 10:47:35;;;;;;;10.20;8.67;;;6.20;99.90;;;;;;4975487;28;20227;-77
2021/04/17 10:50:15;;;;;;;11.07;8.67;;;6.30;99.90;;;;;;4974321;28;20327;-77
2021/04/17 10:52:42;;;;;;;16.63;10.93;;;6.40;99.90;;;;;;4975312;28;20258;-76
2021/04/17 10:55:08;;;;;;;14.00;10.17;;;6.40;99.90;;;;;;4974176;28;20190;-78
2021/04/17 10:57:45;;;;;;;12.00;8.43;;;6.50;99.90;;;;;;4975115;28;20557;-77
2021/04/17 11:00:13;;;;;;;14.03;8.33;;;6.50;99.90;;;;;;4990176;28;20207;-78
2021/04/17 11:02:39;;;;;;;11.10;8.93;;;6.40;99.90;;;;;;4990709;28;20277;-76
2021/04/17 11:05:06;;;;;;;12.17;9.47;;;6.30;99.90;;;;;;4975370;28;20267;-77
2021/04/17 11:07:34;;;;;;;10.57;8.50;;;6.20;99.90;;;;;;4975113;28;20215;-77
2021/04/17 11:10:03;;;;;;;11.90;8.70;;;6.00;99.90;;;;;;4975181;28;20176;-77
2021/04/17 11:12:30;;;;;;;11.63;8.83;;;5.90;99.90;;;;;;4975006;28;20180;-76
2021/04/17 11:15:17;;;;;;;9.70;8.13;;;5.70;99.90;;;;;;4974883;28;20177;-76
2021/04/17 11:17:44;;;;;;;10.70;8.77;;;5.80;99.90;;;;;;4975036;28;20234;-76
2021/04/17 11:20:19;;;;;;;9.53;7.80;;;5.90;99.90;;;;;;4974893;28;20207;-77
2021/04/17 11:22:45;;;;;;;11.60;8.53;;;5.90;99.90;;;;;;4989847;28;20278;-77
2021/04/17 11:25:13;;;;;;;11.50;8.77;;;6.00;99.90;;;;;;4974977;28;20168;-77
2021/04/17 11:27:39;;;;;;;9.53;8.07;;;6.00;99.90;;;;;;4974848;28;20234;-76
2021/04/17 11:30:07;;;;;;;10.67;7.97;;;5.90;99.90;;;;;;4974712;28;20187;-76
2021/04/17 11:32:36;;;;;;;9.87;7.20;;;5.90;99.90;;;;;;4989786;28;20191;-76
2021/04/17 11:35:08;;;;;;;12.83;8.13;;;6.10;99.90;;;;;;4974665;28;20239;-77
2021/04/17 11:37:34;;;;;;;11.90;7.77;;;6.20;99.90;;;;;;4975019;28;20230;-77
2021/04/17 11:40:00;;;;;;;11.17;8.23;;;6.20;99.90;;;;;;4974623;28;20272;-77
2021/04/17 11:42:26;;;;;;;10.87;7.57;;;6.20;99.90;;;;;;4976203;28;20694;-76
2021/04/17 11:44:53;;;;;;;10.23;7.63;;;6.40;99.90;;;;;;4991691;28;20177;-77
2021/04/17 11:47:19;;;;;;;7.93;6.90;;;6.60;99.90;;;;;;4984812;28;20591;-76
2021/04/17 11:49:45;;;;;;;9.10;7.20;;;6.80;99.90;;;;;;5012104;28;20614;-76
2021/04/17 11:52:10;;;;;;;9.50;6.97;;;6.90;99.90;;;;;;5013385;28;20272;-76
2021/04/17 11:54:36;;;;;;;22.77;8.43;;;6.80;99.90;;;;;;5011705;28;20540;-76
2021/04/17 11:57:03;;;;;;;9.03;6.30;;;6.90;99.90;;;;;;5012998;28;20199;-77
2021/04/17 11:59:29;;;;;;;9.70;6.13;;;7.10;99.90;;;;;;5013004;28;20248;-76
2021/04/17 12:01:55;;;;;;;9.00;6.87;;;7.20;99.90;;;;;;5013146;28;20183;-77
2021/04/17 12:04:20;;;;;;;24.87;22.50;;;7.40;99.90;;;;;;5013165;28;20379;-76
2021/04/17 12:06:50;;;;;;;8.03;6.83;;;7.60;99.90;;;;;;5013223;28;20189;-77
2021/04/17 12:09:16;;;;;;;10.37;7.50;;;7.70;99.90;;;;;;5012733;28;20571;-77
2021/04/17 12:11:42;;;;;;;16.47;6.60;;;7.80;99.90;;;;;;5017387;28;20170;-76
2021/04/17 12:14:08;;;;;;;27.27;7.80;;;8.00;99.90;;;;;;5017268;28;20167;-76
2021/04/17 12:16:34;;;;;;;14.63;10.73;;;8.30;99.90;;;;;;5017346;28;20178;-76
2021/04/17 12:19:00;;;;;;;17.73;12.70;;;8.50;99.90;;;;;;5016032;28;20194;-77
2021/04/17 12:21:25;;;;;;;18.27;14.43;;;8.50;99.90;;;;;;5017233;28;20210;-76
2021/04/17 12:23:52;;;;;;;5.37;4.57;;;8.40;99.90;;;;;;5015936;28;20175;-76
2021/04/17 12:26:18;;;;;;;14.83;11.47;;;8.40;99.90;;;;;;5032202;28;20261;-76
2021/04/17 12:28:43;;;;;;;42.17;27.90;;;8.50;99.90;;;;;;5015795;28;20197;-77
2021/04/17 12:31:09;;;;;;;25.37;22.77;;;8.70;99.90;;;;;;5017069;28;20174;-76
2021/04/17 12:33:35;;;;;;;12.13;6.20;;;8.90;99.90;;;;;;5017294;28;20185;-76
2021/04/17 12:36:01;;;;;;;7.17;6.27;;;9.10;99.90;;;;;;5016848;28;20644;-76
2021/04/17 12:38:27;;;;;;;7.70;6.40;;;9.00;99.90;;;;;;5016920;28;20195;-77
2021/04/17 12:40:55;;;;;;;9.40;5.80;;;9.30;99.90;;;;;;5032003;28;20199;-77
2021/04/17 12:43:21;;;;;;;10.87;6.60;;;10.10;99.90;;;;;;5017159;28;20249;-77
2021/04/17 12:45:47;;;;;;;8.77;5.77;;;9.90;99.90;;;;;;5017004;28;20534;-77